sensor_id;sensor_type;location;lat;lon;timestamp;temperature;humidity
53272;DHT22;39160;48.580;7.756;2023-02-18T00:03:51;13.40;99.90
53272;DHT22;39160;48.580;7.756;2023-02-18T00:08:42;13.40;99.90
53272;DHT22;39160;48.580;7.756;2023-02-18T00:13:34;13.30;99.90
53272;DHT22;39160;48.580;7.756;2023-02-18T00:18:25;13.20;99.90
53272;DHT22;39160;48.580;7.756;2023-02-18T00:23:15;13.20;99.90
53272;DHT22;39160;48.580;7.756;2023-02-18T00:28:07;13.10;99.90
53272;DHT22;39160;48.580;7.756;2023-02-18T00:32:58;13.10;99.90
53272;DHT22;39160;48.580;7.756;2023-02-18T00:37:51;13.10;99.90
53272;DHT22;39160;48.580;7.756;2023-02-18T00:42:42;13.00;99.90
53272;DHT22;39160;48.580;7.756;2023-02-18T00:47:32;12.90;99.90
53272;DHT22;39160;48.580;7.756;2023-02-18T00:52:23;13.00;99.90
53272;DHT22;39160;48.580;7.756;2023-02-18T00:57:14;13.00;99.90
53272;DHT22;39160;48.580;7.756;2023-02-18T01:02:04;12.90;99.90
53272;DHT22;39160;48.580;7.756;2023-02-18T01:06:57;12.90;99.90
53272;DHT22;39160;48.580;7.756;2023-02-18T01:11:47;12.90;99.90
53272;DHT22;39160;48.580;7.756;2023-02-18T01:16:38;12.80;99.90
53272;DHT22;39160;48.580;7.756;2023-02-18T01:21:29;12.70;99.90
53272;DHT22;39160;48.580;7.756;2023-02-18T01:26:20;12.70;99.90
53272;DHT22;39160;48.580;7.756;2023-02-18T01:31:12;12.60;99.90
53272;DHT22;39160;48.580;7.756;2023-02-18T01:36:04;12.60;99.90
53272;DHT22;39160;48.580;7.756;2023-02-18T01:40:55;12.60;99.90
53272;DHT22;39160;48.580;7.756;2023-02-18T01:50:50;12.50;99.90
53272;DHT22;39160;48.580;7.756;2023-02-18T01:55:43;12.40;99.90
53272;DHT22;39160;48.580;7.756;2023-02-18T02:00:34;12.40;99.90
53272;DHT22;39160;48.580;7.756;2023-02-18T02:05:30;12.40;99.90
53272;DHT22;39160;48.580;7.756;2023-02-18T02:10:21;12.30;99.90
53272;DHT22;39160;48.580;7.756;2023-02-18T02:25:06;12.20;99.90
53272;DHT22;39160;48.580;7.756;2023-02-18T02:55:24;12.10;99.90
53272;DHT22;39160;48.580;7.756;2023-02-18T03:00:17;12.00;99.90
53272;DHT22;39160;48.580;7.756;2023-02-18T03:10:27;12.10;99.90
53272;DHT22;39160;48.580;7.756;2023-02-18T03:25:18;12.10;99.90
53272;DHT22;39160;48.580;7.756;2023-02-18T03:35:41;12.20;99.90
53272;DHT22;39160;48.580;7.756;2023-02-18T03:40:33;12.30;99.90
53272;DHT22;39160;48.580;7.756;2023-02-18T03:45:25;12.30;99.90
53272;DHT22;39160;48.580;7.756;2023-02-18T03:50:15;12.30;99.90
53272;DHT22;39160;48.580;7.756;2023-02-18T03:55:06;12.30;99.90
53272;DHT22;39160;48.580;7.756;2023-02-18T03:59:58;12.30;99.90
53272;DHT22;39160;48.580;7.756;2023-02-18T04:04:49;12.30;99.90
53272;DHT22;39160;48.580;7.756;2023-02-18T04:09:40;12.30;99.90
53272;DHT22;39160;48.580;7.756;2023-02-18T04:14:30;12.30;99.90
53272;DHT22;39160;48.580;7.756;2023-02-18T04:19:21;12.30;99.90
53272;DHT22;39160;48.580;7.756;2023-02-18T04:24:12;12.30;99.90
53272;DHT22;39160;48.580;7.756;2023-02-18T04:29:02;12.30;99.90
53272;DHT22;39160;48.580;7.756;2023-02-18T04:33:53;12.30;99.90
53272;DHT22;39160;48.580;7.756;2023-02-18T04:38:44;12.30;99.90
53272;DHT22;39160;48.580;7.756;2023-02-18T04:43:34;12.40;99.90
53272;DHT22;39160;48.580;7.756;2023-02-18T04:48:25;12.40;99.90
53272;DHT22;39160;48.580;7.756;2023-02-18T04:53:17;12.40;99.90
53272;DHT22;39160;48.580;7.756;2023-02-18T04:58:07;12.40;99.90
53272;DHT22;39160;48.580;7.756;2023-02-18T05:03:00;12.40;99.90
53272;DHT22;39160;48.580;7.756;2023-02-18T05:07:50;12.50;99.90
53272;DHT22;39160;48.580;7.756;2023-02-18T05:12:41;12.50;99.90
53272;DHT22;39160;48.580;7.756;2023-02-18T05:17:32;12.50;99.90
53272;DHT22;39160;48.580;7.756;2023-02-18T05:22:23;12.60;99.90
53272;DHT22;39160;48.580;7.756;2023-02-18T05:27:14;12.50;99.90
53272;DHT22;39160;48.580;7.756;2023-02-18T05:32:05;12.60;99.90
53272;DHT22;39160;48.580;7.756;2023-02-18T05:36:55;12.60;99.90
53272;DHT22;39160;48.580;7.756;2023-02-18T05:41:46;12.60;99.90
53272;DHT22;39160;48.580;7.756;2023-02-18T05:46:37;12.60;99.90
53272;DHT22;39160;48.580;7.756;2023-02-18T05:51:27;12.60;99.90
53272;DHT22;39160;48.580;7.756;2023-02-18T05:56:18;12.60;99.90
53272;DHT22;39160;48.580;7.756;2023-02-18T06:01:09;12.50;99.90
53272;DHT22;39160;48.580;7.756;2023-02-18T06:06:00;12.60;99.90
53272;DHT22;39160;48.580;7.756;2023-02-18T06:10:50;12.60;99.90
53272;DHT22;39160;48.580;7.756;2023-02-18T06:15:41;12.60;99.90
53272;DHT22;39160;48.580;7.756;2023-02-18T06:20:32;12.60;99.90
53272;DHT22;39160;48.580;7.756;2023-02-18T06:25:23;12.60;99.90
53272;DHT22;39160;48.580;7.756;2023-02-18T06:30:14;12.60;99.90
53272;DHT22;39160;48.580;7.756;2023-02-18T06:35:05;12.60;99.90
53272;DHT22;39160;48.580;7.756;2023-02-18T06:39:55;12.60;99.90
53272;DHT22;39160;48.580;7.756;2023-02-18T06:44:46;12.60;99.90
53272;DHT22;39160;48.580;7.756;2023-02-18T06:49:37;12.70;99.90
53272;DHT22;39160;48.580;7.756;2023-02-18T06:54:28;12.60;99.90
53272;DHT22;39160;48.580;7.756;2023-02-18T06:59:19;12.60;99.90
53272;DHT22;39160;48.580;7.756;2023-02-18T07:04:09;12.70;99.90
53272;DHT22;39160;48.580;7.756;2023-02-18T07:09:00;12.70;99.90
53272;DHT22;39160;48.580;7.756;2023-02-18T07:13:51;12.70;99.90
53272;DHT22;39160;48.580;7.756;2023-02-18T07:18:41;12.80;99.90
53272;DHT22;39160;48.580;7.756;2023-02-18T07:23:34;12.80;99.90
53272;DHT22;39160;48.580;7.756;2023-02-18T07:28:24;13.00;99.90
53272;DHT22;39160;48.580;7.756;2023-02-18T07:33:15;13.00;99.90
53272;DHT22;39160;48.580;7.756;2023-02-18T07:38:05;12.90;99.90
53272;DHT22;39160;48.580;7.756;2023-02-18T07:42:56;13.00;99.90
53272;DHT22;39160;48.580;7.756;2023-02-18T07:47:47;13.10;99.90
53272;DHT22;39160;48.580;7.756;2023-02-18T07:52:37;13.10;99.90
53272;DHT22;39160;48.580;7.756;2023-02-18T07:57:28;13.20;99.90
53272;DHT22;39160;48.580;7.756;2023-02-18T08:02:21;13.30;99.90
53272;DHT22;39160;48.580;7.756;2023-02-18T08:07:16;13.30;99.90
53272;DHT22;39160;48.580;7.756;2023-02-18T08:12:07;13.30;99.90
53272;DHT22;39160;48.580;7.756;2023-02-18T08:16:58;13.40;99.90
53272;DHT22;39160;48.580;7.756;2023-02-18T08:21:49;13.40;99.90
53272;DHT22;39160;48.580;7.756;2023-02-18T08:26:39;13.50;99.90
53272;DHT22;39160;48.580;7.756;2023-02-18T08:31:30;13.50;99.90
53272;DHT22;39160;48.580;7.756;2023-02-18T08:36:22;13.60;99.90
53272;DHT22;39160;48.580;7.756;2023-02-18T08:41:13;13.60;99.90
53272;DHT22;39160;48.580;7.756;2023-02-18T08:46:05;13.60;99.90
53272;DHT22;39160;48.580;7.756;2023-02-18T08:50:56;13.50;99.90
53272;DHT22;39160;48.580;7.756;2023-02-18T08:55:47;13.60;99.90
53272;DHT22;39160;48.580;7.756;2023-02-18T09:00:38;13.70;99.90
53272;DHT22;39160;48.580;7.756;2023-02-18T09:05:29;13.80;99.90
53272;DHT22;39160;48.580;7.756;2023-02-18T09:10:20;13.90;99.90
53272;DHT22;39160;48.580;7.756;2023-02-18T09:15:11;14.00;99.90
53272;DHT22;39160;48.580;7.756;2023-02-18T09:20:02;14.00;99.90
53272;DHT22;39160;48.580;7.756;2023-02-18T09:24:53;14.10;99.90
53272;DHT22;39160;48.580;7.756;2023-02-18T09:29:44;14.10;99.90
53272;DHT22;39160;48.580;7.756;2023-02-18T09:34:35;14.20;99.90
53272;DHT22;39160;48.580;7.756;2023-02-18T09:39:26;14.30;99.90
53272;DHT22;39160;48.580;7.756;2023-02-18T09:45:09;14.30;99.90
53272;DHT22;39160;48.580;7.756;2023-02-18T09:49:44;14.40;99.90
53272;DHT22;39160;48.580;7.756;2023-02-18T09:54:35;14.50;99.90
53272;DHT22;39160;48.580;7.756;2023-02-18T09:59:26;14.50;99.90
53272;DHT22;39160;48.580;7.756;2023-02-18T10:09:40;14.60;99.90
53272;DHT22;39160;48.580;7.756;2023-02-18T10:14:30;14.60;99.90
53272;DHT22;39160;48.580;7.756;2023-02-18T10:19:33;14.80;99.90
53272;DHT22;39160;48.580;7.756;2023-02-18T10:29:25;14.90;99.90
53272;DHT22;39160;48.580;7.756;2023-02-18T10:49:55;15.20;99.90
53272;DHT22;39160;48.580;7.756;2023-02-18T10:55:02;15.30;99.90
53272;DHT22;39160;48.580;7.756;2023-02-18T11:00:02;15.40;99.90
53272;DHT22;39160;48.580;7.756;2023-02-18T11:05:22;15.40;99.90
53272;DHT22;39160;48.580;7.756;2023-02-18T11:10:33;15.50;99.90
53272;DHT22;39160;48.580;7.756;2023-02-18T11:15:26;15.60;99.90
53272;DHT22;39160;48.580;7.756;2023-02-18T11:25:21;15.60;99.90
53272;DHT22;39160;48.580;7.756;2023-02-18T11:35:20;15.80;99.90
53272;DHT22;39160;48.580;7.756;2023-02-18T11:45:29;16.10;99.90
53272;DHT22;39160;48.580;7.756;2023-02-18T11:50:21;16.10;99.90
53272;DHT22;39160;48.580;7.756;2023-02-18T11:55:14;16.10;99.90
53272;DHT22;39160;48.580;7.756;2023-02-18T12:00:36;16.10;99.90
53272;DHT22;39160;48.580;7.756;2023-02-18T12:05:26;16.30;99.90
53272;DHT22;39160;48.580;7.756;2023-02-18T12:10:41;16.50;99.90
53272;DHT22;39160;48.580;7.756;2023-02-18T12:52:04;16.20;99.90
53272;DHT22;39160;48.580;7.756;2023-02-18T12:57:04;16.30;99.90
53272;DHT22;39160;48.580;7.756;2023-02-18T13:17:18;16.40;99.90
53272;DHT22;39160;48.580;7.756;2023-02-18T13:22:11;16.70;99.90
53272;DHT22;39160;48.580;7.756;2023-02-18T13:27:13;16.80;99.90
53272;DHT22;39160;48.580;7.756;2023-02-18T13:47:07;16.30;99.90
53272;DHT22;39160;48.580;7.756;2023-02-18T13:52:00;16.20;99.90
53272;DHT22;39160;48.580;7.756;2023-02-18T13:57:03;16.10;99.90
53272;DHT22;39160;48.580;7.756;2023-02-18T14:17:32;16.10;99.90
53272;DHT22;39160;48.580;7.756;2023-02-18T14:27:29;15.90;99.90
53272;DHT22;39160;48.580;7.756;2023-02-18T14:32:20;15.80;99.90
53272;DHT22;39160;48.580;7.756;2023-02-18T14:53:02;16.40;99.90
53272;DHT22;39160;48.580;7.756;2023-02-18T14:58:29;16.80;99.90
53272;DHT22;39160;48.580;7.756;2023-02-18T15:03:21;16.80;99.90
53272;DHT22;39160;48.580;7.756;2023-02-18T15:08:16;16.90;99.90
53272;DHT22;39160;48.580;7.756;2023-02-18T15:13:22;16.80;99.90
53272;DHT22;39160;48.580;7.756;2023-02-18T15:23:23;16.40;99.90
53272;DHT22;39160;48.580;7.756;2023-02-18T15:28:30;16.20;99.90
53272;DHT22;39160;48.580;7.756;2023-02-18T15:33:21;16.00;99.90
53272;DHT22;39160;48.580;7.756;2023-02-18T15:38:15;15.90;99.90
53272;DHT22;39160;48.580;7.756;2023-02-18T15:43:06;15.80;99.90
53272;DHT22;39160;48.580;7.756;2023-02-18T15:47:58;15.70;99.90
53272;DHT22;39160;48.580;7.756;2023-02-18T15:52:50;15.50;99.90
53272;DHT22;39160;48.580;7.756;2023-02-18T15:57:42;15.20;99.90
53272;DHT22;39160;48.580;7.756;2023-02-18T16:02:32;15.10;99.90
53272;DHT22;39160;48.580;7.756;2023-02-18T16:07:25;14.90;99.90
53272;DHT22;39160;48.580;7.756;2023-02-18T16:12:36;14.80;99.90
53272;DHT22;39160;48.580;7.756;2023-02-18T16:17:29;14.70;99.90
53272;DHT22;39160;48.580;7.756;2023-02-18T16:27:16;14.50;99.90
53272;DHT22;39160;48.580;7.756;2023-02-18T16:32:07;14.50;99.90
53272;DHT22;39160;48.580;7.756;2023-02-18T16:36:58;14.40;99.90
53272;DHT22;39160;48.580;7.756;2023-02-18T16:42:11;14.40;99.90
53272;DHT22;39160;48.580;7.756;2023-02-18T16:47:02;14.30;99.90
53272;DHT22;39160;48.580;7.756;2023-02-18T16:51:53;14.30;99.90
53272;DHT22;39160;48.580;7.756;2023-02-18T16:56:44;14.20;99.90
53272;DHT22;39160;48.580;7.756;2023-02-18T17:01:40;14.10;99.90
53272;DHT22;39160;48.580;7.756;2023-02-18T17:06:33;14.10;99.90
53272;DHT22;39160;48.580;7.756;2023-02-18T17:11:29;14.10;99.90
53272;DHT22;39160;48.580;7.756;2023-02-18T17:16:21;14.10;99.90
53272;DHT22;39160;48.580;7.756;2023-02-18T17:21:14;14.10;99.90
53272;DHT22;39160;48.580;7.756;2023-02-18T17:26:14;14.00;99.90
53272;DHT22;39160;48.580;7.756;2023-02-18T17:31:07;14.00;99.90
53272;DHT22;39160;48.580;7.756;2023-02-18T17:35:59;14.00;99.90
53272;DHT22;39160;48.580;7.756;2023-02-18T17:40:49;14.00;99.90
53272;DHT22;39160;48.580;7.756;2023-02-18T17:45:49;14.00;99.90
53272;DHT22;39160;48.580;7.756;2023-02-18T17:50:40;13.90;99.90
53272;DHT22;39160;48.580;7.756;2023-02-18T17:55:34;13.90;99.90
53272;DHT22;39160;48.580;7.756;2023-02-18T18:00:31;13.90;99.90
53272;DHT22;39160;48.580;7.756;2023-02-18T18:05:28;13.90;99.90
53272;DHT22;39160;48.580;7.756;2023-02-18T18:10:21;13.90;99.90
53272;DHT22;39160;48.580;7.756;2023-02-18T18:15:20;13.80;99.90
53272;DHT22;39160;48.580;7.756;2023-02-18T18:20:11;13.90;99.90
53272;DHT22;39160;48.580;7.756;2023-02-18T18:25:08;13.90;99.90
53272;DHT22;39160;48.580;7.756;2023-02-18T18:30:00;13.80;99.90
53272;DHT22;39160;48.580;7.756;2023-02-18T18:34:51;13.80;99.90
53272;DHT22;39160;48.580;7.756;2023-02-18T18:39:41;13.80;99.90
53272;DHT22;39160;48.580;7.756;2023-02-18T18:44:32;13.70;99.90
53272;DHT22;39160;48.580;7.756;2023-02-18T18:49:23;13.70;99.90
53272;DHT22;39160;48.580;7.756;2023-02-18T18:54:13;13.70;99.90
53272;DHT22;39160;48.580;7.756;2023-02-18T18:59:04;13.60;99.90
53272;DHT22;39160;48.580;7.756;2023-02-18T19:03:57;13.60;99.90
53272;DHT22;39160;48.580;7.756;2023-02-18T19:08:47;13.60;99.90
53272;DHT22;39160;48.580;7.756;2023-02-18T19:13:38;13.60;99.90
53272;DHT22;39160;48.580;7.756;2023-02-18T19:18:29;13.60;99.90
53272;DHT22;39160;48.580;7.756;2023-02-18T19:23:22;13.60;99.90
53272;DHT22;39160;48.580;7.756;2023-02-18T19:28:13;13.60;99.90
53272;DHT22;39160;48.580;7.756;2023-02-18T19:33:05;13.50;99.90
53272;DHT22;39160;48.580;7.756;2023-02-18T19:37:55;13.50;99.90
53272;DHT22;39160;48.580;7.756;2023-02-18T19:42:46;13.50;99.90
53272;DHT22;39160;48.580;7.756;2023-02-18T19:47:38;13.40;99.90
53272;DHT22;39160;48.580;7.756;2023-02-18T19:52:29;13.40;99.90
53272;DHT22;39160;48.580;7.756;2023-02-18T19:57:19;13.40;99.90
53272;DHT22;39160;48.580;7.756;2023-02-18T20:02:18;13.30;99.90
53272;DHT22;39160;48.580;7.756;2023-02-18T20:07:10;13.30;99.90
53272;DHT22;39160;48.580;7.756;2023-02-18T20:12:02;13.20;99.90
53272;DHT22;39160;48.580;7.756;2023-02-18T20:16:53;13.30;99.90
53272;DHT22;39160;48.580;7.756;2023-02-18T20:21:45;13.30;99.90
53272;DHT22;39160;48.580;7.756;2023-02-18T20:26:35;13.30;99.90
53272;DHT22;39160;48.580;7.756;2023-02-18T20:31:26;13.30;99.90
53272;DHT22;39160;48.580;7.756;2023-02-18T20:36:17;13.20;99.90
53272;DHT22;39160;48.580;7.756;2023-02-18T20:41:10;13.20;99.90
53272;DHT22;39160;48.580;7.756;2023-02-18T20:46:04;13.20;99.90
53272;DHT22;39160;48.580;7.756;2023-02-18T20:51:05;13.30;99.90
53272;DHT22;39160;48.580;7.756;2023-02-18T20:55:59;13.30;99.90
53272;DHT22;39160;48.580;7.756;2023-02-18T21:01:01;13.30;99.90
53272;DHT22;39160;48.580;7.756;2023-02-18T21:05:54;13.20;99.90
53272;DHT22;39160;48.580;7.756;2023-02-18T21:10:45;13.20;99.90
53272;DHT22;39160;48.580;7.756;2023-02-18T21:15:36;13.30;99.90
53272;DHT22;39160;48.580;7.756;2023-02-18T21:20:27;13.20;99.90
53272;DHT22;39160;48.580;7.756;2023-02-18T21:25:18;13.20;99.90
53272;DHT22;39160;48.580;7.756;2023-02-18T21:30:09;13.20;99.90
53272;DHT22;39160;48.580;7.756;2023-02-18T21:34:59;13.20;99.90
53272;DHT22;39160;48.580;7.756;2023-02-18T21:39:50;13.20;99.90
53272;DHT22;39160;48.580;7.756;2023-02-18T21:44:41;13.20;99.90
53272;DHT22;39160;48.580;7.756;2023-02-18T21:49:31;13.20;99.90
53272;DHT22;39160;48.580;7.756;2023-02-18T21:59:18;13.20;99.90
53272;DHT22;39160;48.580;7.756;2023-02-18T22:04:10;13.20;99.90
53272;DHT22;39160;48.580;7.756;2023-02-18T22:09:03;13.30;99.90
53272;DHT22;39160;48.580;7.756;2023-02-18T22:13:54;13.20;99.90
53272;DHT22;39160;48.580;7.756;2023-02-18T22:18:45;13.10;99.90
53272;DHT22;39160;48.580;7.756;2023-02-18T22:23:35;13.10;99.90
53272;DHT22;39160;48.580;7.756;2023-02-18T22:28:26;13.10;99.90
53272;DHT22;39160;48.580;7.756;2023-02-18T22:33:17;13.10;99.90
53272;DHT22;39160;48.580;7.756;2023-02-18T22:38:07;13.10;99.90
53272;DHT22;39160;48.580;7.756;2023-02-18T22:42:58;13.10;99.90
53272;DHT22;39160;48.580;7.756;2023-02-18T22:47:49;13.10;99.90
53272;DHT22;39160;48.580;7.756;2023-02-18T22:52:39;13.10;99.90
53272;DHT22;39160;48.580;7.756;2023-02-18T22:57:30;12.90;99.90
53272;DHT22;39160;48.580;7.756;2023-02-18T23:02:21;12.90;99.90
53272;DHT22;39160;48.580;7.756;2023-02-18T23:07:12;12.90;99.90
53272;DHT22;39160;48.580;7.756;2023-02-18T23:12:03;12.90;99.90
53272;DHT22;39160;48.580;7.756;2023-02-18T23:16:56;12.80;99.90
53272;DHT22;39160;48.580;7.756;2023-02-18T23:22:03;12.80;99.90
53272;DHT22;39160;48.580;7.756;2023-02-18T23:26:54;12.70;99.90
53272;DHT22;39160;48.580;7.756;2023-02-18T23:31:45;12.70;99.90
53272;DHT22;39160;48.580;7.756;2023-02-18T23:36:35;12.70;99.90
53272;DHT22;39160;48.580;7.756;2023-02-18T23:41:27;12.60;99.90
53272;DHT22;39160;48.580;7.756;2023-02-18T23:46:20;12.50;99.90
53272;DHT22;39160;48.580;7.756;2023-02-18T23:51:16;12.60;99.90
